Time;durP1;ratioP1;P1;durP2;ratioP2;P2;SDS_P1;SDS_P2;PMS_P1;PMS_P2;Temp;Humidity;BMP_temperature;BMP_pressure;BME280_temperature;BME280_humidity;BME280_pressure;Samples;Min_cycle;Max_cycle;Signal;HPM_P1;HPM_P2
2023/05/23 00:00:59;;;;;;;10.65;4.75;;;;;;;17.62;75.23;101045.41;4989436;28;20527;-82
2023/05/23 00:03:25;;;;;;;9.13;4.78;;;;;;;17.59;74.90;101045.59;4992312;28;20467;-82
2023/05/23 00:05:50;;;;;;;7.35;4.28;;;;;;;17.62;74.93;101060.25;4993355;28;20041;-82
2023/05/23 00:08:16;;;;;;;9.60;4.80;;;;;;;17.64;74.51;101060.97;4976808;28;20038;-82
2023/05/23 00:10:42;;;;;;;5.75;4.38;;;;;;;17.43;74.56;101038.03;4960791;28;20491;-82
2023/05/23 00:13:08;;;;;;;6.30;4.55;;;;;;;17.31;75.25;101035.47;4960630;28;20452;-82
2023/05/23 00:15:37;;;;;;;8.68;4.75;;;;;;;17.23;75.86;101022.91;4960786;28;20038;-82
2023/05/23 00:18:03;;;;;;;9.00;5.35;;;;;;;17.33;76.02;101038.78;4976870;28;20049;-81
2023/05/23 00:20:29;;;;;;;11.93;4.97;;;;;;;17.36;76.14;101043.78;4960695;28;20034;-82
2023/05/23 00:22:57;;;;;;;8.27;4.97;;;;;;;17.33;76.48;101039.63;4976811;28;20073;-81
2023/05/23 00:25:23;;;;;;;8.57;4.75;;;;;;;17.40;76.26;101050.47;4977071;28;20030;-82
2023/05/23 00:27:49;;;;;;;7.97;4.88;;;;;;;17.41;76.02;101046.94;4960384;28;20037;-81
2023/05/23 00:30:15;;;;;;;7.70;5.20;;;;;;;17.45;76.19;101053.59;4993703;28;20105;-82
2023/05/23 00:32:40;;;;;;;9.13;5.22;;;;;;;17.36;76.09;101023.72;4976364;28;20120;-82
2023/05/23 00:35:06;;;;;;;6.50;4.78;;;;;;;17.43;76.56;101045.88;4976459;28;20077;-82
2023/05/23 00:37:33;;;;;;;9.32;5.53;;;;;;;17.37;76.89;101040.22;4976221;28;20057;-81
2023/05/23 00:39:58;;;;;;;9.27;5.97;;;;;;;17.33;77.11;101037.00;4992876;28;20026;-85
2023/05/23 00:42:24;;;;;;;9.75;6.85;;;;;;;17.26;77.34;101022.69;4992426;28;20061;-81
2023/05/23 00:44:49;;;;;;;10.10;7.32;;;;;;;17.20;77.47;101028.34;4992587;28;20030;-81
2023/05/23 00:47:15;;;;;;;15.73;7.10;;;;;;;17.11;77.81;101013.31;4992160;28;20027;-83
2023/05/23 00:49:40;;;;;;;11.65;6.88;;;;;;;17.13;78.43;101027.94;4992465;28;20037;-84
2023/05/23 00:52:06;;;;;;;10.15;6.78;;;;;;;17.15;78.55;101020.81;4976206;28;20029;-83
2023/05/23 00:54:31;;;;;;;11.13;7.18;;;;;;;17.19;78.32;101037.13;4976151;28;20034;-82
2023/05/23 00:56:57;;;;;;;9.77;7.10;;;;;;;17.08;78.71;101037.03;4959735;28;20037;-81
2023/05/23 00:59:23;;;;;;;11.15;7.47;;;;;;;17.05;78.70;101037.25;4976085;28;20042;-81
2023/05/23 01:01:49;;;;;;;16.00;6.75;;;;;;;17.13;78.76;101055.88;4976057;28;20523;-82
2023/05/23 01:04:15;;;;;;;12.55;7.13;;;;;;;17.13;78.97;101058.50;4976098;28;20121;-82
2023/05/23 01:06:45;;;;;;;12.20;7.22;;;;;;;17.17;78.70;101078.22;4991751;28;20026;-82
2023/05/23 01:09:11;;;;;;;11.13;6.97;;;;;;;17.16;78.95;101074.78;4976453;28;20030;-82
2023/05/23 01:12:11;;;;;;;12.25;7.45;;;;;;;17.11;79.32;101055.16;4991592;28;20080;-81
2023/05/23 01:15:01;;;;;;;16.73;6.82;;;;;;;17.05;80.08;101071.25;4940941;28;20052;-82
2023/05/23 01:17:54;;;;;;;14.60;7.07;;;;;;;17.09;79.88;101072.69;4991802;28;20097;-82
2023/05/23 01:20:25;;;;;;;9.15;7.32;;;;;;;16.97;79.92;101057.88;4991774;28;20069;-82
2023/05/23 01:22:59;;;;;;;12.48;6.57;;;;;;;17.02;80.48;101061.00;4976034;28;20038;-82
2023/05/23 01:25:46;;;;;;;10.25;6.68;;;;;;;16.96;80.47;101049.19;4993008;28;20053;-82
2023/05/23 01:28:16;;;;;;;11.63;7.40;;;;;;;16.97;80.66;101058.69;4992922;28;20034;-82
2023/05/23 01:30:43;;;;;;;10.75;6.95;;;;;;;16.97;80.89;101052.63;4975654;28;20022;-81
2023/05/23 01:33:08;;;;;;;8.38;6.50;;;;;;;16.76;80.63;101011.38;4959325;28;20030;-81
2023/05/23 01:35:34;;;;;;;9.82;6.10;;;;;;;16.89;80.02;101040.91;4958768;28;20041;-81
2023/05/23 01:37:59;;;;;;;11.25;6.30;;;;;;;16.99;79.79;101048.13;4975164;28;20046;-82
2023/05/23 01:40:25;;;;;;;10.13;6.10;;;;;;;16.94;79.66;101037.19;4958954;28;20030;-82
2023/05/23 01:42:51;;;;;;;16.50;6.20;;;;;;;16.90;79.70;101042.59;4975083;28;20393;-82
2023/05/23 01:45:16;;;;;;;9.82;5.88;;;;;;;16.80;80.50;101041.56;4975287;28;20496;-82
2023/05/23 01:47:42;;;;;;;14.25;6.18;;;;;;;16.79;80.66;101033.81;4974942;28;20089;-82
2023/05/23 01:50:08;;;;;;;14.23;6.20;;;;;;;16.80;80.42;101052.00;4975144;28;20550;-82
2023/05/23 01:52:33;;;;;;;13.02;7.63;;;;;;;16.81;80.31;101058.94;4975052;28;20443;-81
2023/05/23 01:54:59;;;;;;;14.73;6.93;;;;;;;16.63;80.39;101040.06;4974669;28;20491;-82
2023/05/23 01:57:25;;;;;;;9.95;6.57;;;;;;;16.47;80.62;101044.66;4991298;28;20076;-81
2023/05/23 01:59:50;;;;;;;11.88;6.13;;;;;;;16.29;81.19;101038.03;4975085;28;20038;-83
2023/05/23 02:02:16;;;;;;;9.98;6.45;;;;;;;16.31;82.01;101052.66;4974981;28;21071;-81
2023/05/23 02:04:41;;;;;;;15.30;6.68;;;;;;;16.39;81.88;101041.69;4974909;28;20034;-81
2023/05/23 02:07:07;;;;;;;9.93;4.95;;;;;;;16.57;79.14;101058.75;4974655;28;20022;-81
2023/05/23 02:09:32;;;;;;;7.88;4.50;;;;;;;16.56;78.01;101051.03;4991878;28;20030;-83
2023/05/23 02:11:58;;;;;;;12.00;4.53;;;;;;;16.48;76.87;101050.69;4958543;28;20118;-81
2023/05/23 02:14:25;;;;;;;6.10;4.60;;;;;;;16.39;76.61;101052.16;4992079;28;20034;-82
2023/05/23 02:16:52;;;;;;;7.75;4.13;;;;;;;16.36;76.66;101060.19;4990898;28;20026;-81
2023/05/23 02:19:18;;;;;;;4.70;3.33;;;;;;;16.33;76.14;101053.41;4991095;28;20053;-81
2023/05/23 02:21:43;;;;;;;9.00;4.72;;;;;;;16.24;75.87;101059.22;4974517;28;20064;-81
2023/05/23 02:24:09;;;;;;;5.10;3.78;;;;;;;16.00;76.03;101032.94;4990244;28;20023;-81
2023/05/23 02:26:34;;;;;;;5.13;3.78;;;;;;;16.21;76.40;101064.63;4974073;28;20026;-82
2023/05/23 02:29:00;;;;;;;6.28;4.07;;;;;;;16.08;76.78;101050.72;4991832;28;20034;-82
2023/05/23 02:31:26;;;;;;;12.80;4.60;;;;;;;16.19;77.32;101063.91;5007003;28;20037;-82
2023/05/23 02:33:52;;;;;;;9.07;4.63;;;;;;;16.24;76.68;101064.44;4990542;28;20408;-84
2023/05/23 02:36:18;;;;;;;5.47;4.00;;;;;;;16.18;77.02;101057.00;4974199;28;20510;-81
2023/05/23 02:38:43;;;;;;;5.25;3.55;;;;;;;16.25;76.35;101066.13;4990319;28;20487;-81
2023/05/23 02:41:08;;;;;;;7.07;4.07;;;;;;;16.25;75.98;101058.28;4974320;28;20080;-81
2023/05/23 02:43:34;;;;;;;5.28;3.80;;;;;;;16.30;76.15;101064.03;4990475;28;20064;-81
2023/05/23 02:46:00;;;;;;;6.28;4.10;;;;;;;16.23;76.37;101068.00;4990598;28;20041;-81
2023/05/23 02:48:25;;;;;;;6.10;4.03;;;;;;;16.13;76.20;101050.44;4991852;28;20034;-82
2023/05/23 02:50:51;;;;;;;5.10;3.90;;;;;;;16.20;76.58;101062.97;4991465;28;20026;-82
2023/05/23 02:53:17;;;;;;;5.68;3.97;;;;;;;16.16;76.54;101055.44;4973763;28;20035;-81
2023/05/23 02:55:42;;;;;;;8.65;4.10;;;;;;;16.27;76.25;101064.25;4974195;28;20058;-82
2023/05/23 02:58:07;;;;;;;6.38;3.95;;;;;;;16.09;76.25;101041.94;4974046;28;20388;-81
2023/05/23 03:00:33;;;;;;;5.60;3.92;;;;;;;16.24;75.90;101067.06;4989829;28;20112;-81
2023/05/23 03:02:59;;;;;;;5.80;3.83;;;;;;;16.29;77.11;101064.13;4973796;28;20034;-80
2023/05/23 03:05:24;;;;;;;5.53;3.75;;;;;;;16.32;75.80;101062.19;4990085;28;20034;-91
2023/05/23 03:07:51;;;;;;;13.43;4.28;;;;;;;16.51;75.05;101066.16;4973668;28;20356;-81
2023/05/23 03:10:16;;;;;;;6.75;4.50;;;;;;;16.53;74.24;101070.38;4957992;28;20031;-82
2023/05/23 03:12:42;;;;;;;5.55;4.22;;;;;;;16.47;74.99;101072.53;4990053;28;20034;-81
2023/05/23 03:15:08;;;;;;;5.38;3.78;;;;;;;16.39;76.46;101061.75;4957693;28;20038;-81
2023/05/23 03:17:34;;;;;;;7.43;4.75;;;;;;;16.62;74.50;101079.38;4973691;28;20030;-81
2023/05/23 03:19:59;;;;;;;14.00;4.63;;;;;;;16.49;74.07;101073.25;4973584;28;20053;-83
2023/05/23 03:22:25;;;;;;;8.40;4.88;;;;;;;16.41;75.30;101065.94;4986246;28;20034;-81
2023/05/23 03:24:50;;;;;;;7.97;4.93;;;;;;;16.42;74.88;101059.81;4957759;28;20037;-81
2023/05/23 03:27:16;;;;;;;7.15;4.55;;;;;;;16.42;73.74;101070.25;4957603;28;20070;-82
2023/05/23 03:29:41;;;;;;;10.80;4.70;;;;;;;16.29;74.84;101057.13;4954367;28;20492;-82
2023/05/23 03:32:06;;;;;;;11.13;4.57;;;;;;;16.21;74.31;101075.06;4978453;28;20520;-85
2023/05/23 03:34:35;;;;;;;7.82;4.88;;;;;;;16.19;74.62;101060.47;4990607;28;20038;-87
2023/05/23 03:37:00;;;;;;;13.10;6.70;;;;;;;16.19;74.60;101050.84;4973526;28;20050;-84
2023/05/23 03:39:26;;;;;;;11.20;6.28;;;;;;;16.31;75.03;101065.69;4992160;28;20427;-86
2023/05/23 03:41:51;;;;;;;6.72;4.75;;;;;;;16.25;74.89;101065.28;4976520;28;20428;-86
2023/05/23 03:44:17;;;;;;;7.32;4.97;;;;;;;16.61;72.96;101070.66;4993792;28;20169;-87
2023/05/23 03:46:42;;;;;;;6.13;4.10;;;;;;;16.41;73.29;101057.25;4961119;28;20042;-85
2023/05/23 03:49:08;;;;;;;5.90;4.38;;;;;;;16.36;74.58;101049.75;4977259;28;20031;-85
2023/05/23 03:51:33;;;;;;;6.47;3.95;;;;;;;16.43;74.10;101076.31;4993199;28;20495;-85
2023/05/23 03:53:58;;;;;;;8.00;4.57;;;;;;;16.34;74.11;101073.34;4976760;28;20042;-85
2023/05/23 03:56:25;;;;;;;13.73;4.80;;;;;;;16.25;74.43;101071.34;4993239;28;20030;-85
2023/05/23 03:58:50;;;;;;;6.03;4.63;;;;;;;16.50;74.01;101074.94;4992998;28;20148;-85
2023/05/23 04:01:16;;;;;;;6.85;5.03;;;;;;;16.81;75.50;101074.59;4962597;28;20511;-84
2023/05/23 04:03:41;;;;;;;7.97;4.25;;;;;;;16.84;72.58;101068.31;4989515;28;20451;-88
2023/05/23 04:06:06;;;;;;;6.07;4.20;;;;;;;16.72;73.14;101071.78;4990835;28;20030;-87
2023/05/23 04:08:35;;;;;;;5.72;4.43;;;;;;;16.70;73.56;101077.09;4993249;28;20042;-87
2023/05/23 04:11:01;;;;;;;6.00;4.13;;;;;;;16.69;73.37;101083.25;4993270;28;20062;-85
2023/05/23 04:13:27;;;;;;;7.20;4.28;;;;;;;16.52;73.90;101068.69;4974637;28;20034;-80
2023/05/23 04:15:54;;;;;;;8.05;4.82;;;;;;;16.50;74.08;101078.38;4988798;28;20034;-82
2023/05/23 04:18:20;;;;;;;9.48;6.95;;;;;;;16.42;74.40;101061.53;4976358;28;20487;-82
2023/05/23 04:20:46;;;;;;;6.47;4.07;;;;;;;16.45;74.47;101082.25;4993159;28;20022;-82
2023/05/23 04:23:11;;;;;;;5.40;4.05;;;;;;;16.40;75.53;101086.94;4992113;28;20077;-87
2023/05/23 04:25:38;;;;;;;6.53;4.03;;;;;;;16.39;75.81;101093.94;4991349;28;20042;-88
2023/05/23 04:28:04;;;;;;;7.68;4.07;;;;;;;16.43;75.58;101071.09;5009204;28;20077;-88
2023/05/23 04:30:30;;;;;;;5.05;3.75;;;;;;;16.70;74.66;101077.09;4977458;28;20050;-92
2023/05/23 04:32:58;;;;;;;6.32;4.43;;;;;;;16.63;75.25;101083.66;4961299;28;20026;-90
2023/05/23 04:35:25;;;;;;;7.05;4.68;;;;;;;16.61;74.92;101072.44;4994198;28;20034;-90
2023/05/23 04:37:55;;;;;;;7.28;5.03;;;;;;;16.62;74.82;101074.13;4975272;28;20083;-82
2023/05/23 04:40:21;;;;;;;7.20;4.78;;;;;;;16.63;75.06;101081.03;4999137;28;20062;-88
2023/05/23 04:42:47;;;;;;;9.18;4.95;;;;;;;16.82;75.37;101097.19;4974152;28;20082;-92
2023/05/23 04:45:13;;;;;;;5.82;3.88;;;;;;;16.86;74.72;101082.94;4972901;28;20035;-93
2023/05/23 04:47:38;;;;;;;12.30;4.30;;;;;;;16.95;74.54;101096.34;4991693;28;20042;-89
2023/05/23 04:50:04;;;;;;;6.65;4.22;;;;;;;16.98;74.55;101096.13;4993228;28;20041;-87
2023/05/23 04:52:32;;;;;;;5.70;4.20;;;;;;;16.97;74.55;101095.28;5005951;28;20035;-88
2023/05/23 04:54:57;;;;;;;6.95;5.18;;;;;;;17.09;74.81;101098.84;4990079;28;20115;-91
2023/05/23 04:57:23;;;;;;;8.13;4.85;;;;;;;17.12;74.69;101099.47;4993800;28;20018;-89
2023/05/23 04:59:48;;;;;;;5.68;4.45;;;;;;;17.12;74.33;101093.41;4978115;28;20070;-88
2023/05/23 05:02:14;;;;;;;12.23;5.20;;;;;;;17.34;74.49;101103.22;4974547;28;20037;-88
2023/05/23 05:04:39;;;;;;;5.55;4.22;;;;;;;17.43;74.53;101108.66;4989096;28;20045;-89
2023/05/23 05:07:05;;;;;;;6.55;4.28;;;;;;;17.33;73.57;101086.69;4985156;28;20031;-85
2023/05/23 05:09:31;;;;;;;6.75;4.93;;;;;;;17.46;73.98;101090.09;4975046;28;20039;-92
2023/05/23 05:11:57;;;;;;;8.60;4.65;;;;;;;17.59;73.97;101097.09;4979937;28;20510;-93
2023/05/23 05:14:24;;;;;;;8.95;5.72;;;;;;;17.62;73.80;101096.88;4992109;28;20026;-86
2023/05/23 05:16:50;;;;;;;8.30;4.85;;;;;;;17.73;73.62;101099.59;4991171;28;20076;-89
2023/05/23 05:19:16;;;;;;;11.75;5.25;;;;;;;17.81;73.47;101102.53;4993515;28;20484;-88
2023/05/23 05:21:41;;;;;;;7.03;4.28;;;;;;;17.74;73.16;101088.19;4987908;28;20042;-88
2023/05/23 05:24:11;;;;;;;12.68;5.63;;;;;;;17.87;73.24;101099.44;4976232;28;20038;-94
2023/05/23 05:26:41;;;;;;;8.55;5.15;;;;;;;17.98;73.06;101104.72;4972503;28;20500;-93
2023/05/23 05:29:07;;;;;;;5.97;4.57;;;;;;;18.03;73.14;101097.41;4999112;28;20500;-89
2023/05/23 05:31:34;;;;;;;10.88;4.38;;;;;;;18.16;72.79;101114.81;4975818;28;20053;-88
2023/05/23 05:34:00;;;;;;;20.67;6.03;;;;;;;18.25;73.42;101108.91;4982346;28;20026;-90
2023/05/23 05:36:25;;;;;;;11.02;4.78;;;;;;;18.36;72.27;101103.72;4971048;28;20410;-85
2023/05/23 05:38:51;;;;;;;7.32;4.90;;;;;;;18.47;72.45;101111.63;4991018;28;20034;-91
2023/05/23 05:41:17;;;;;;;21.80;6.47;;;;;;;18.39;71.62;101082.56;4994162;28;20034;-91
2023/05/23 05:43:43;;;;;;;7.90;4.70;;;;;;;18.63;71.25;101106.91;4994115;28;20026;-87
2023/05/23 05:46:10;;;;;;;7.75;5.03;;;;;;;18.72;70.40;101107.22;4975959;28;20578;-89
2023/05/23 05:48:35;;;;;;;5.43;4.38;;;;;;;18.84;69.46;101108.91;4958984;28;20026;-90
2023/05/23 05:51:02;;;;;;;9.82;4.25;;;;;;;19.02;69.64;101117.97;5005490;28;20412;-94
2023/05/23 05:53:28;;;;;;;9.40;5.60;;;;;;;19.09;69.06;101110.50;4992611;28;20033;-90
2023/05/23 05:55:54;;;;;;;16.17;6.32;;;;;;;19.23;69.43;101117.28;4976500;28;20030;-91
2023/05/23 05:58:19;;;;;;;6.65;4.70;;;;;;;19.34;69.02;101117.28;4973660;28;20040;-88
2023/05/23 06:00:47;;;;;;;6.28;4.43;;;;;;;19.40;69.45;101101.91;4988864;28;20069;-86
2023/05/23 06:03:14;;;;;;;7.78;4.75;;;;;;;19.61;68.59;101099.41;4973326;28;20505;-85
2023/05/23 06:05:40;;;;;;;12.50;5.05;;;;;;;19.75;69.23;101095.66;4988210;28;20038;-89
2023/05/23 06:08:05;;;;;;;10.32;7.63;;;;;;;19.96;66.94;101108.88;4991001;28;20516;-93
2023/05/23 06:10:31;;;;;;;9.05;5.47;;;;;;;19.86;66.02;101089.56;4989796;28;20042;-92
2023/05/23 06:12:57;;;;;;;8.32;5.05;;;;;;;19.88;66.81;101096.38;4973666;28;20062;-88
2023/05/23 06:15:22;;;;;;;8.82;5.00;;;;;;;20.13;66.05;101105.72;4990184;28;20463;-84
2023/05/23 06:17:47;;;;;;;7.97;4.65;;;;;;;20.22;65.21;101104.97;5008183;28;20026;-92
2023/05/23 06:20:13;;;;;;;7.18;4.80;;;;;;;20.18;64.38;101106.19;4992502;28;20057;-87
2023/05/23 06:22:38;;;;;;;10.63;5.40;;;;;;;20.26;64.39;101082.75;4989740;28;20045;-86
2023/05/23 06:25:05;;;;;;;10.18;5.22;;;;;;;20.38;64.05;101104.56;4983493;28;20031;-87
2023/05/23 06:27:30;;;;;;;7.65;4.90;;;;;;;20.47;62.13;101109.06;4979493;28;20043;-94
2023/05/23 06:29:56;;;;;;;6.38;4.35;;;;;;;20.43;62.09;101101.56;4978658;28;20408;-92
2023/05/23 06:32:22;;;;;;;7.40;5.00;;;;;;;20.39;62.05;101089.63;4972958;28;20043;-86
2023/05/23 06:34:47;;;;;;;7.70;5.80;;;;;;;20.51;62.12;101104.38;4990779;28;20042;-83
2023/05/23 06:37:13;;;;;;;6.78;5.13;;;;;;;20.54;62.10;101098.88;4989130;28;20130;-88
2023/05/23 06:39:38;;;;;;;10.77;5.82;;;;;;;20.65;62.36;101109.34;4987238;28;20031;-88
2023/05/23 06:42:04;;;;;;;6.43;4.47;;;;;;;20.69;61.58;101100.22;4983777;28;20038;-86
2023/05/23 06:44:29;;;;;;;9.05;5.72;;;;;;;20.84;61.57;101112.09;4973841;28;20033;-88
2023/05/23 06:46:58;;;;;;;11.80;8.02;;;;;;;20.81;61.33;101086.03;4990219;28;20038;-92
2023/05/23 06:49:23;;;;;;;6.97;4.63;;;;;;;20.94;60.48;101092.88;4989316;28;20546;-86
2023/05/23 06:51:49;;;;;;;9.13;5.63;;;;;;;21.06;61.23;101094.50;4987565;28;20031;-93
2023/05/23 06:54:15;;;;;;;15.35;5.68;;;;;;;21.18;60.58;101104.78;4990765;28;20046;-87
2023/05/23 06:56:40;;;;;;;14.98;4.95;;;;;;;21.26;59.89;101105.94;4991396;28;20039;-88
2023/05/23 06:59:06;;;;;;;20.77;5.40;;;;;;;21.35;59.40;101092.84;4990631;28;20034;-91
2023/05/23 07:01:31;;;;;;;9.18;6.40;;;;;;;21.31;59.18;101096.69;4973575;28;20030;-92
2023/05/23 07:03:57;;;;;;;11.55;5.60;;;;;;;21.28;58.43;101077.72;4973880;28;20037;-84
2023/05/23 07:06:22;;;;;;;6.40;4.72;;;;;;;21.35;58.02;101095.47;4989453;28;20519;-92
2023/05/23 07:08:47;;;;;;;13.23;4.95;;;;;;;21.37;59.01;101069.84;4988863;28;20479;-88
2023/05/23 07:11:13;;;;;;;10.85;7.90;;;;;;;21.68;58.64;101085.59;4989684;28;20041;-85
2023/05/23 07:13:38;;;;;;;6.55;4.30;;;;;;;21.69;57.63;101081.97;4994959;28;20037;-87
2023/05/23 07:16:04;;;;;;;8.32;5.03;;;;;;;21.75;58.32;101065.66;4996543;28;20488;-90
2023/05/23 07:18:29;;;;;;;6.10;4.55;;;;;;;21.96;57.80;101079.53;5014441;28;20038;-87
2023/05/23 07:20:58;;;;;;;6.80;4.38;;;;;;;22.12;57.18;101083.44;4995061;28;20033;-93
2023/05/23 07:23:24;;;;;;;9.82;5.00;;;;;;;22.24;57.33;101077.06;4993118;28;20050;-88
2023/05/23 07:25:49;;;;;;;8.20;4.85;;;;;;;22.41;56.55;101084.25;4975367;28;20109;-94
2023/05/23 07:28:15;;;;;;;10.23;4.60;;;;;;;22.47;55.39;101072.31;4992892;28;20492;-86
2023/05/23 07:30:41;;;;;;;6.18;4.38;;;;;;;22.52;55.18;101052.47;4976719;28;20417;-90
2023/05/23 07:33:06;;;;;;;7.85;5.07;;;;;;;22.79;56.45;101071.97;4992684;28;20030;-86
2023/05/23 07:35:32;;;;;;;9.30;5.57;;;;;;;23.01;56.97;101078.72;4994039;28;20030;-86
2023/05/23 07:37:57;;;;;;;6.60;4.53;;;;;;;23.03;54.99;101063.59;4988739;28;20443;-86
2023/05/23 07:40:23;;;;;;;8.85;5.05;;;;;;;23.15;54.89;101065.06;4987621;28;20033;-89
2023/05/23 07:42:48;;;;;;;8.95;4.65;;;;;;;23.24;54.35;101060.72;4992187;28;20492;-89
2023/05/23 07:45:13;;;;;;;7.47;4.70;;;;;;;23.40;53.28;101063.53;4993428;28;20108;-88
2023/05/23 07:47:40;;;;;;;6.50;4.50;;;;;;;23.29;53.15;101053.19;4979343;28;20027;-88
2023/05/23 07:50:06;;;;;;;6.53;4.72;;;;;;;23.40;53.20;101056.50;4991860;28;20042;-89
2023/05/23 07:52:31;;;;;;;6.45;4.30;;;;;;;23.52;52.26;101054.47;4986948;28;20122;-89
2023/05/23 07:54:57;;;;;;;7.55;4.07;;;;;;;23.58;51.24;101061.78;4990158;28;20543;-93
2023/05/23 07:57:25;;;;;;;5.75;4.07;;;;;;;23.58;51.28;101059.13;4982061;28;20716;-91
2023/05/23 07:59:51;;;;;;;6.88;4.22;;;;;;;23.65;51.39;101062.88;4991693;28;20038;-87
2023/05/23 08:02:17;;;;;;;8.60;4.85;;;;;;;23.73;50.96;101062.97;4987705;28;20664;-83
2023/05/23 08:04:44;;;;;;;6.78;4.18;;;;;;;23.81;50.58;101056.94;4967093;28;20062;-83
2023/05/23 08:07:10;;;;;;;6.85;4.20;;;;;;;23.91;50.52;101063.00;4974843;28;20061;-90
2023/05/23 08:09:41;;;;;;;5.90;4.10;;;;;;;24.04;49.64;101055.50;4992201;28;20022;-86
2023/05/23 08:12:08;;;;;;;4.90;3.75;;;;;;;24.13;49.58;101037.06;4988460;28;20035;-90
2023/05/23 08:14:33;;;;;;;4.35;3.40;;;;;;;24.28;46.51;101044.28;4968533;28;20083;-85
2023/05/23 08:16:59;;;;;;;4.85;3.25;;;;;;;24.43;45.83;101054.34;4991704;28;20033;-87
2023/05/23 08:19:24;;;;;;;5.18;3.40;;;;;;;24.45;45.82;101052.38;4993197;28;20037;-91
2023/05/23 08:21:51;;;;;;;5.20;3.42;;;;;;;24.37;45.63;101041.72;4990798;28;20042;-84
2023/05/23 08:24:18;;;;;;;5.32;3.78;;;;;;;24.32;45.70;101023.69;4987978;28;20030;-82
2023/05/23 08:26:43;;;;;;;4.20;2.97;;;;;;;24.48;45.69;101060.00;4989826;28;20088;-82
2023/05/23 08:29:09;;;;;;;4.45;3.15;;;;;;;24.43;45.34;101035.84;4983656;28;20440;-85
2023/05/23 08:31:34;;;;;;;3.53;2.70;;;;;;;24.64;44.26;101046.88;4962529;28;20532;-88
2023/05/23 08:34:00;;;;;;;5.18;3.00;;;;;;;24.70;43.03;101048.91;4952013;28;20038;-87
2023/05/23 08:36:25;;;;;;;4.35;2.85;;;;;;;24.66;45.60;101039.63;4988364;28;20057;-90
2023/05/23 08:38:51;;;;;;;4.95;3.42;;;;;;;24.82;43.52;101050.31;4986296;28;20084;-89
2023/05/23 08:41:21;;;;;;;5.15;3.50;;;;;;;24.75;43.19;101020.16;4993186;28;20034;-85
2023/05/23 08:43:46;;;;;;;4.15;2.90;;;;;;;24.80;43.79;101041.69;4993941;28;20109;-92
2023/05/23 08:46:12;;;;;;;4.30;3.25;;;;;;;24.83;44.51;101041.38;4987451;28;20401;-88
2023/05/23 08:48:38;;;;;;;4.30;3.50;;;;;;;24.77;45.48;101030.56;4975364;28;20027;-88
2023/05/23 08:51:03;;;;;;;4.13;3.05;;;;;;;24.88;44.87;101039.09;4992504;28;20026;-92
2023/05/23 08:53:29;;;;;;;5.28;3.35;;;;;;;24.97;43.94;101047.88;4987828;28;20050;-90
2023/05/23 08:55:57;;;;;;;4.05;3.00;;;;;;;25.04;44.08;101026.94;4988952;28;20033;-90
2023/05/23 08:58:27;;;;;;;4.50;3.20;;;;;;;25.09;44.74;101029.94;4991886;28;20027;-89
2023/05/23 09:00:54;;;;;;;4.47;3.63;;;;;;;25.17;43.95;101029.97;4979664;28;20045;-92
2023/05/23 09:03:20;;;;;;;10.18;3.10;;;;;;;25.23;43.86;101036.44;4991546;28;20084;-93
2023/05/23 09:05:45;;;;;;;5.55;3.03;;;;;;;25.30;42.54;101032.16;4985024;28;20026;-84
2023/05/23 09:08:12;;;;;;;5.72;2.80;;;;;;;25.20;43.22;101024.38;4972852;28;20038;-88
2023/05/23 09:10:38;;;;;;;4.10;3.00;;;;;;;25.09;42.99;101000.84;4991935;28;20045;-91
2023/05/23 09:13:04;;;;;;;7.82;3.50;;;;;;;25.31;43.88;101016.13;4975095;28;20034;-91
2023/05/23 09:15:30;;;;;;;4.05;2.70;;;;;;;25.58;44.39;101024.81;5006714;28;20511;-84
2023/05/23 09:18:00;;;;;;;6.00;3.58;;;;;;;25.74;42.88;101003.63;4991236;28;20496;-87
2023/05/23 09:20:26;;;;;;;5.40;3.47;;;;;;;25.86;42.33;101010.28;4990276;28;20053;-86
2023/05/23 09:22:53;;;;;;;8.82;3.42;;;;;;;25.96;42.89;101008.31;4989689;28;20049;-91
2023/05/23 09:25:19;;;;;;;5.18;3.55;;;;;;;25.91;43.45;101007.97;4988225;28;20414;-93
2023/05/23 09:27:44;;;;;;;5.10;3.33;;;;;;;25.76;43.11;100988.41;4985312;28;20022;-90
2023/05/23 09:30:10;;;;;;;4.28;3.25;;;;;;;25.90;42.71;101008.97;4984344;28;20026;-87
2023/05/23 09:32:36;;;;;;;4.03;3.20;;;;;;;25.96;42.39;100997.69;4959680;28;20050;-86
2023/05/23 09:35:05;;;;;;;4.97;3.63;;;;;;;26.08;42.47;101010.63;4984266;28;20041;-89
2023/05/23 09:37:39;;;;;;;5.38;3.47;;;;;;;26.13;41.97;101017.06;4991199;28;20058;-86
2023/05/23 09:40:11;;;;;;;3.70;3.03;;;;;;;26.15;41.26;101012.41;4990293;28;20042;-93
2023/05/23 09:42:46;;;;;;;5.05;3.40;;;;;;;26.27;41.51;101005.78;4972115;28;20538;-91
2023/05/23 09:45:15;;;;;;;6.13;3.90;;;;;;;26.31;41.50;101001.78;4991353;28;20508;-87
2023/05/23 09:47:52;;;;;;;4.60;3.58;;;;;;;26.33;41.07;100998.97;4972743;28;20034;-90
2023/05/23 09:50:18;;;;;;;5.10;3.60;;;;;;;26.47;41.25;100993.03;4988957;28;20037;-88
2023/05/23 09:52:43;;;;;;;5.20;3.60;;;;;;;26.55;41.24;100994.84;4991054;28;20077;-86
2023/05/23 09:55:09;;;;;;;6.43;3.40;;;;;;;26.72;40.55;100990.28;4989781;28;20030;-85
2023/05/23 09:57:38;;;;;;;6.75;3.38;;;;;;;27.00;41.00;100991.50;4986678;28;20075;-88
2023/05/23 10:00:05;;;;;;;4.72;2.95;;;;;;;27.07;39.60;100981.88;4990020;28;20029;-92
2023/05/23 10:02:52;;;;;;;5.18;3.08;;;;;;;27.34;39.62;100979.75;4992479;28;20030;-89
2023/05/23 10:05:40;;;;;;;6.72;3.40;;;;;;;27.33;39.71;100980.72;4992988;28;20117;-93
2023/05/23 10:08:28;;;;;;;4.03;2.90;;;;;;;27.37;37.89;100984.69;4991006;28;20026;-93
2023/05/23 10:10:57;;;;;;;4.53;2.90;;;;;;;27.49;38.53;100983.28;4984767;28;20185;-90
2023/05/23 10:13:26;;;;;;;4.05;2.95;;;;;;;27.65;36.93;100975.22;4987206;28;20041;-92
2023/05/23 10:15:58;;;;;;;8.77;2.63;;;;;;;27.75;33.16;100968.84;4987616;28;20093;-90
2023/05/23 10:18:28;;;;;;;3.50;2.80;;;;;;;27.70;34.04;100967.53;4979821;28;20105;-87
2023/05/23 10:20:55;;;;;;;4.15;2.78;;;;;;;27.79;35.56;100962.97;4973212;28;20085;-90
2023/05/23 10:23:20;;;;;;;3.53;2.75;;;;;;;28.04;35.59;100960.94;4958761;28;20049;-93
2023/05/23 10:25:46;;;;;;;5.85;3.38;;;;;;;28.18;35.60;100948.66;5006353;28;20468;-83
2023/05/23 10:28:11;;;;;;;3.60;2.50;;;;;;;28.22;33.43;100928.66;4990978;28;20499;-93
2023/05/23 10:30:37;;;;;;;3.38;2.63;;;;;;;28.56;33.19;100952.94;4975328;28;20459;-91
2023/05/23 10:33:02;;;;;;;3.50;2.60;;;;;;;28.70;31.23;100947.75;4974394;28;20038;-95
2023/05/23 10:35:37;;;;;;;3.75;2.88;;;;;;;28.41;31.88;100927.31;5128811;23;20475;-89
2023/05/23 10:38:04;;;;;;;4.28;2.80;;;;;;;28.52;31.98;100943.66;4970141;28;20043;-82
2023/05/23 10:40:45;;;;;;;3.17;2.58;;;;;;;28.56;31.14;100942.28;4993820;28;20065;-83
2023/05/23 10:43:43;;;;;;;3.15;2.40;;;;;;;28.58;32.66;100934.09;4992373;28;20165;-82
2023/05/23 10:46:08;;;;;;;4.70;2.40;;;;;;;28.80;33.44;100927.00;4961591;28;20094;-85
2023/05/23 10:48:34;;;;;;;3.75;2.80;;;;;;;28.93;33.06;100921.88;4989426;28;20483;-80
2023/05/23 10:51:02;;;;;;;4.65;2.53;;;;;;;29.04;30.66;100913.38;4990284;28;20030;-84
2023/05/23 10:53:28;;;;;;;4.75;3.88;;;;;;;29.24;31.20;100923.44;4973396;28;20096;-83
2023/05/23 10:55:54;;;;;;;4.85;2.55;;;;;;;29.29;30.31;100927.16;4954073;28;20493;-84
2023/05/23 10:58:21;;;;;;;3.10;2.30;;;;;;;29.23;30.61;100906.63;4979839;28;20074;-83
2023/05/23 11:00:59;;;;;;;3.35;2.83;;;;;;;29.37;29.15;100911.03;4973478;28;20030;-92
2023/05/23 11:03:34;;;;;;;4.30;3.17;;;;;;;29.59;29.02;100922.53;4987307;28;20411;-87
2023/05/23 11:06:01;;;;;;;5.05;2.60;;;;;;;29.59;29.49;100911.06;4988954;28;20038;-87
2023/05/23 11:08:28;;;;;;;3.75;2.83;;;;;;;29.43;30.08;100912.97;4973413;28;20030;-90
2023/05/23 11:11:01;;;;;;;3.67;2.58;;;;;;;29.34;30.16;100908.78;4989616;28;20034;-86
2023/05/23 11:13:56;;;;;;;5.00;3.03;;;;;;;29.29;30.31;100913.00;4970329;28;20556;-90
2023/05/23 11:16:38;;;;;;;5.30;2.70;;;;;;;29.29;30.57;100915.69;4981768;28;20073;-92
2023/05/23 11:19:24;;;;;;;4.78;2.88;;;;;;;29.46;29.75;100909.06;4975001;28;20034;-88
2023/05/23 11:21:52;;;;;;;2.95;2.35;;;;;;;29.51;29.48;100919.22;4989648;28;20065;-93
2023/05/23 11:24:18;;;;;;;4.00;2.83;;;;;;;29.46;29.54;100905.59;4989884;28;20041;-89